Time;durP1;ratioP1;P1;durP2;ratioP2;P2;SDS_P1;SDS_P2;PMS_P1;PMS_P2;Temp;Humidity;BMP_temperature;BMP_pressure;BME280_temperature;BME280_humidity;BME280_pressure;Samples;Min_cycle;Max_cycle;Signal;HPM_P1;HPM_P2
2020/12/31 00:02:15;;;;;;;20.07;11.67;;;;;;;-144.99;100.00;52541.84;5050551;28;20746;-74
2020/12/31 00:04:42;;;;;;;14.30;10.40;;;;;;;-144.99;100.00;52554.09;5045313;28;20731;-75
2020/12/31 00:07:09;;;;;;;10.53;7.80;;;;;;;-144.99;100.00;52533.69;5049688;28;21019;-75
2020/12/31 00:09:35;;;;;;;13.63;10.77;;;;;;;-144.99;100.00;52513.31;5047500;28;20659;-76
2020/12/31 00:12:02;;;;;;;12.60;10.60;;;;;;;-144.99;100.00;52507.19;5051055;28;20663;-76
2020/12/31 00:14:28;;;;;;;11.07;8.63;;;;;;;-144.99;100.00;52517.41;5045676;28;20743;-76
2020/12/31 00:16:54;;;;;;;9.93;7.57;;;;;;;-144.99;100.00;52519.44;5043191;28;20604;-77
2020/12/31 00:19:20;;;;;;;11.13;8.73;;;;;;;-144.99;100.00;52541.84;5055496;28;21214;-78
2020/12/31 00:21:46;;;;;;;9.07;8.17;;;;;;;-144.99;100.00;52568.34;5053614;28;21030;-76
2020/12/31 00:24:13;;;;;;;11.23;8.60;;;;;;;-144.99;100.00;52521.47;5049160;28;21266;-77
2020/12/31 00:26:39;;;;;;;9.77;7.03;;;;;;;-144.99;100.00;52525.56;5048101;28;20627;-77
2020/12/31 00:29:06;;;;;;;13.30;9.40;;;;;;;-144.99;100.00;52533.69;5045815;28;20639;-77
2020/12/31 00:31:32;;;;;;;11.30;8.67;;;;;;;-144.99;100.00;52507.19;5049971;28;20682;-78
2020/12/31 00:33:58;;;;;;;9.70;7.57;;;;;;;-144.99;100.00;52539.81;5047933;28;20679;-77
2020/12/31 00:36:25;;;;;;;10.70;7.40;;;;;;;-144.99;100.00;52492.94;5049422;28;20710;-78
2020/12/31 00:38:52;;;;;;;7.80;6.70;;;;;;;-144.99;100.00;52547.97;5039362;28;20636;-77
2020/12/31 00:41:20;;;;;;;8.23;6.77;;;;;;;-144.99;100.00;52525.56;5063974;28;20704;-79
2020/12/31 00:43:46;;;;;;;8.47;7.43;;;;;;;-144.99;100.00;52488.84;5048120;28;20680;-77
2020/12/31 00:46:12;;;;;;;11.87;6.83;;;;;;;-144.99;100.00;52523.50;5057109;28;20638;-78
2020/12/31 00:48:38;;;;;;;9.43;7.03;;;;;;;-144.99;100.00;52529.63;5054132;28;20932;-77
2020/12/31 00:51:05;;;;;;;7.73;6.37;;;;;;;-144.99;100.00;52562.25;5049466;28;20663;-77
2020/12/31 00:53:31;;;;;;;7.60;6.70;;;;;;;-144.99;100.00;52513.31;5050240;28;20647;-77
2020/12/31 00:55:57;;;;;;;9.07;6.97;;;;;;;-144.99;100.00;52492.94;5051893;28;20671;-79
2020/12/31 00:58:24;;;;;;;7.87;6.13;;;;;;;-144.99;100.00;52541.84;5052144;28;20719;-77
2020/12/31 01:00:50;;;;;;;9.60;6.53;;;;;;;-144.99;100.00;52501.09;5054982;28;20647;-78
2020/12/31 01:03:17;;;;;;;11.93;7.73;;;;;;;-144.99;100.00;52501.09;5053834;28;20634;-79
2020/12/31 01:05:43;;;;;;;12.40;8.47;;;;;;;-144.99;100.00;52492.94;4703553;28;10000515;-78
2020/12/31 01:08:09;;;;;;;9.97;7.07;;;;;;;-144.99;100.00;52600.97;5057973;28;20251;-75
2020/12/31 01:10:35;;;;;;;12.33;6.90;;;;;;;-144.99;100.00;52488.84;5055671;28;20689;-78
2020/12/31 01:13:02;;;;;;;8.53;5.73;;;;;;;-144.99;100.00;52521.47;5051112;28;21099;-76
2020/12/31 01:15:29;;;;;;;7.37;5.77;;;;;;;-144.99;100.00;52517.41;5047878;28;21267;-76
2020/12/31 01:17:55;;;;;;;6.37;5.13;;;;;;;-144.99;100.00;52515.34;5049821;28;20723;-76
2020/12/31 01:20:22;;;;;;;8.33;6.47;;;;;;;-144.99;100.00;52517.41;5051838;28;20690;-76
2020/12/31 01:22:48;;;;;;;8.73;6.27;;;;;;;-144.99;100.00;52509.25;5051014;28;20703;-75
2020/12/31 01:25:14;;;;;;;9.20;6.00;;;;;;;-144.99;100.00;52541.84;5047432;28;20686;-75
2020/12/31 01:27:40;;;;;;;8.80;6.03;;;;;;;-144.99;100.00;52517.41;5050795;28;20664;-75
2020/12/31 01:30:07;;;;;;;11.17;7.13;;;;;;;-144.99;100.00;52541.84;5040890;28;20892;-76
2020/12/31 01:32:34;;;;;;;10.73;7.60;;;;;;;-144.99;100.00;52509.25;5050731;28;20636;-74
2020/12/31 01:35:00;;;;;;;7.10;6.10;;;;;;;-144.99;100.00;52529.63;5046038;28;20667;-75
2020/12/31 01:37:26;;;;;;;6.67;5.57;;;;;;;-144.99;100.00;52527.59;5051038;28;20638;-75
2020/12/31 01:39:53;;;;;;;9.07;7.13;;;;;;;-144.99;100.00;52543.91;5053981;28;20631;-76
2020/12/31 01:42:19;;;;;;;9.33;6.40;;;;;;;-144.99;100.00;52543.91;5064557;28;21210;-76
2020/12/31 01:44:45;;;;;;;9.03;7.30;;;;;;;-144.99;100.00;52537.78;5052051;28;20611;-75
2020/12/31 01:47:13;;;;;;;11.23;8.07;;;;;;;-144.99;100.00;52558.16;5048823;28;20624;-74
2020/12/31 01:49:43;;;;;;;9.00;7.27;;;;;;;-144.99;100.00;52525.56;5045360;28;20734;-76
2020/12/31 01:52:09;;;;;;;9.57;7.97;;;;;;;-144.99;100.00;52533.69;5047378;28;20754;-75
2020/12/31 01:54:36;;;;;;;9.00;7.37;;;;;;;-144.99;100.00;52529.63;5050008;28;21130;-74
2020/12/31 01:57:02;;;;;;;12.97;8.27;;;;;;;-144.99;100.00;52533.69;5048053;28;21079;-76
2020/12/31 01:59:28;;;;;;;10.13;8.50;;;;;;;-144.99;100.00;52497.00;5041036;28;20627;-75
2020/12/31 02:01:55;;;;;;;16.40;11.90;;;;;;;-144.99;100.00;52521.47;5048498;28;20738;-75
2020/12/31 02:04:21;;;;;;;17.57;10.63;;;;;;;-144.99;100.00;52517.41;5052665;28;20685;-75
2020/12/31 02:06:51;;;;;;;15.87;12.50;;;;;;;-144.99;100.00;52523.50;5051245;28;20643;-74
2020/12/31 02:09:17;;;;;;;16.20;12.73;;;;;;;-144.99;100.00;52497.00;5046061;28;20724;-75
2020/12/31 02:11:43;;;;;;;16.77;11.63;;;;;;;-144.99;100.00;52509.25;5048447;28;20655;-73
2020/12/31 02:14:09;;;;;;;13.60;10.80;;;;;;;-144.99;100.00;52541.84;5048551;28;20763;-75
2020/12/31 02:16:38;;;;;;;17.60;13.90;;;;;;;-144.99;100.00;52521.47;5049378;28;20627;-75
2020/12/31 02:19:06;;;;;;;21.00;13.40;;;;;;;-144.99;100.00;52523.50;5041246;28;20660;-74
2020/12/31 02:21:34;;;;;;;18.40;14.33;;;;;;;-144.99;100.00;52541.84;5046093;28;20767;-75
2020/12/31 02:24:03;;;;;;;19.47;14.23;;;;;;;-144.99;100.00;52529.63;5048783;28;20716;-75
2020/12/31 02:26:30;;;;;;;20.07;16.60;;;;;;;-144.99;100.00;52519.44;5057525;28;20627;-73
2020/12/31 02:28:58;;;;;;;18.17;13.93;;;;;;;-144.99;100.00;52537.78;5047570;28;20663;-73
2020/12/31 02:31:26;;;;;;;20.40;15.43;;;;;;;-144.99;100.00;52517.41;5048983;28;21255;-73
2020/12/31 02:33:54;;;;;;;20.77;15.17;;;;;;;-144.99;100.00;52519.44;5054884;28;20660;-74
2020/12/31 02:36:28;;;;;;;21.33;16.83;;;;;;;-144.99;100.00;52523.50;5065694;28;20644;-74
2020/12/31 02:38:56;;;;;;;23.37;17.80;;;;;;;-144.99;100.00;52521.47;5060386;28;20635;-74
2020/12/31 02:41:26;;;;;;;24.80;20.67;;;;;;;-144.99;100.00;52533.69;5050190;28;21015;-75
2020/12/31 02:43:52;;;;;;;20.43;17.07;;;;;;;-144.99;100.00;52521.47;5048883;28;20646;-73
2020/12/31 02:46:20;;;;;;;22.00;17.80;;;;;;;-144.99;100.00;52529.63;5048794;28;20660;-74
2020/12/31 02:48:48;;;;;;;23.57;18.97;;;;;;;-144.99;100.00;52509.25;5047472;28;21022;-74
2020/12/31 02:51:14;;;;;;;25.73;19.20;;;;;;;-144.99;100.00;52533.69;5044561;28;20774;-74
2020/12/31 02:53:40;;;;;;;25.17;18.80;;;;;;;-144.99;100.00;52517.41;5051176;28;20754;-74
2020/12/31 02:56:11;;;;;;;22.37;18.43;;;;;;;-144.99;100.00;52517.41;5047907;28;20727;-74
2020/12/31 02:58:39;;;;;;;26.07;21.20;;;;;;;-144.99;100.00;52558.16;5049448;28;20715;-73
2020/12/31 03:01:05;;;;;;;27.20;20.30;;;;;;;-144.99;100.00;52525.56;5047834;28;20691;-74
2020/12/31 03:03:31;;;;;;;27.47;20.43;;;;;;;-144.99;100.00;52521.47;5045103;28;20646;-74
2020/12/31 03:06:00;;;;;;;27.80;19.67;;;;;;;-144.99;100.00;52541.84;5061465;28;20719;-74
2020/12/31 03:08:27;;;;;;;26.13;21.33;;;;;;;-144.99;100.00;52556.13;5046510;28;20642;-76
2020/12/31 03:10:54;;;;;;;25.67;20.87;;;;;;;-144.99;100.00;52515.34;5046809;28;20699;-74
2020/12/31 03:13:23;;;;;;;22.33;19.00;;;;;;;-144.99;100.00;52545.94;5048031;28;20652;-75
2020/12/31 03:15:51;;;;;;;25.97;20.87;;;;;;;-144.99;100.00;52558.16;5046802;28;20658;-74
2020/12/31 03:18:17;;;;;;;26.03;20.77;;;;;;;-144.99;100.00;52517.41;5049057;28;20738;-77
2020/12/31 03:20:44;;;;;;;25.93;20.73;;;;;;;-144.99;100.00;52541.84;5046801;28;20671;-77
2020/12/31 03:23:11;;;;;;;25.80;17.87;;;;;;;-144.99;100.00;52541.84;5049326;28;20638;-77
2020/12/31 03:25:38;;;;;;;36.20;21.23;;;;;;;-144.99;100.00;52527.59;5044896;28;20624;-76
2020/12/31 03:28:04;;;;;;;28.87;19.50;;;;;;;-144.99;100.00;52537.78;5046329;28;20655;-76
2020/12/31 03:30:30;;;;;;;28.43;20.07;;;;;;;-144.99;100.00;52564.28;5050410;28;20647;-77
2020/12/31 03:32:57;;;;;;;32.43;21.70;;;;;;;-144.99;100.00;52562.25;5050226;28;20761;-76
2020/12/31 03:35:23;;;;;;;31.07;21.97;;;;;;;-144.99;100.00;52509.25;5045881;28;20945;-77
2020/12/31 03:37:49;;;;;;;35.23;25.23;;;;;;;-144.99;100.00;52556.13;5051618;28;21248;-75
2020/12/31 03:40:16;;;;;;;28.40;21.17;;;;;;;-144.99;100.00;52574.47;5051080;28;20671;-76
2020/12/31 03:42:42;;;;;;;28.50;22.77;;;;;;;-144.99;100.00;52550.00;5050087;28;21302;-76
2020/12/31 03:45:08;;;;;;;31.13;23.37;;;;;;;-144.99;100.00;52545.94;5050413;28;21236;-76
2020/12/31 03:47:34;;;;;;;29.23;20.47;;;;;;;-144.99;100.00;52517.41;5052414;28;21068;-76
2020/12/31 03:50:02;;;;;;;28.83;22.53;;;;;;;-144.99;100.00;52531.66;5048361;28;20966;-76
2020/12/31 03:52:28;;;;;;;27.70;20.50;;;;;;;-144.99;100.00;52537.78;5050883;28;20754;-77
2020/12/31 03:54:54;;;;;;;32.90;22.10;;;;;;;-144.99;100.00;52531.66;5044436;28;20720;-76
2020/12/31 03:57:20;;;;;;;31.00;21.83;;;;;;;-144.99;100.00;52517.41;5053103;28;20628;-75
2020/12/31 03:59:46;;;;;;;30.20;22.10;;;;;;;-144.99;100.00;52521.47;5052333;28;21049;-74
2020/12/31 04:02:12;;;;;;;29.00;21.70;;;;;;;-144.99;100.00;52480.72;5052563;28;20679;-76
2020/12/31 04:04:38;;;;;;;28.37;21.63;;;;;;;-144.99;100.00;52566.31;5050322;28;20624;-77
2020/12/31 04:07:05;;;;;;;29.80;21.17;;;;;;;-144.99;100.00;52566.31;5052991;28;20723;-79
2020/12/31 04:09:32;;;;;;;27.20;20.70;;;;;;;-144.99;100.00;52545.94;5053955;28;20982;-78
2020/12/31 04:11:58;;;;;;;32.23;22.03;;;;;;;-144.99;100.00;52525.56;5056021;28;20667;-76
2020/12/31 04:14:24;;;;;;;27.73;20.83;;;;;;;-144.99;100.00;52537.78;5051408;28;20813;-77
2020/12/31 04:16:50;;;;;;;30.80;21.40;;;;;;;-144.99;100.00;52521.47;5055897;28;20695;-76
2020/12/31 04:19:16;;;;;;;27.70;22.17;;;;;;;-144.99;100.00;52550.00;5051621;28;21079;-78
2020/12/31 04:21:42;;;;;;;27.03;21.93;;;;;;;-144.99;100.00;52537.78;5053549;28;20709;-75
2020/12/31 04:24:09;;;;;;;36.57;23.50;;;;;;;-144.99;100.00;52566.31;5053736;28;20757;-73
2020/12/31 04:26:35;;;;;;;29.80;21.83;;;;;;;-144.99;100.00;52537.78;5059378;28;20646;-75
2020/12/31 04:29:02;;;;;;;29.43;23.20;;;;;;;-144.99;100.00;52537.78;5050430;28;20667;-75
2020/12/31 04:31:28;;;;;;;32.03;21.50;;;;;;;-144.99;100.00;52521.47;5050390;28;20736;-76
2020/12/31 04:33:55;;;;;;;28.90;20.50;;;;;;;-144.99;100.00;52513.31;5052013;28;20755;-75
2020/12/31 04:36:21;;;;;;;31.63;22.33;;;;;;;-144.99;100.00;52537.78;5046947;28;20738;-75
2020/12/31 04:38:47;;;;;;;31.50;22.20;;;;;;;-144.99;100.00;52603.00;5048198;28;20728;-75
2020/12/31 04:41:14;;;;;;;29.87;23.00;;;;;;;-144.99;100.00;52521.47;5050652;28;20658;-75
2020/12/31 04:43:40;;;;;;;32.33;23.90;;;;;;;-144.99;100.00;52525.56;5045306;28;20750;-73
2020/12/31 04:46:09;;;;;;;30.50;21.57;;;;;;;-144.99;100.00;52543.91;5046915;28;20616;-72
2020/12/31 04:48:40;;;;;;;28.47;21.80;;;;;;;-144.99;100.00;52554.09;5050821;28;20722;-74
2020/12/31 04:51:07;;;;;;;25.60;21.70;;;;;;;-144.99;100.00;52545.94;5049000;28;20697;-72
2020/12/31 04:53:33;;;;;;;27.87;19.77;;;;;;;-144.99;100.00;52513.31;5050260;28;20927;-73
2020/12/31 04:56:02;;;;;;;28.60;21.30;;;;;;;-144.99;100.00;52523.50;5046873;28;21264;-73
2020/12/31 04:58:29;;;;;;;28.20;20.43;;;;;;;-144.99;100.00;52550.00;5049529;28;20656;-74
2020/12/31 05:00:55;;;;;;;27.30;21.90;;;;;;;-144.99;100.00;52545.94;5049356;28;20703;-73
2020/12/31 05:03:21;;;;;;;31.27;23.70;;;;;;;-144.99;100.00;52550.00;5049878;28;20620;-73
2020/12/31 05:05:53;;;;;;;37.43;22.70;;;;;;;-144.99;100.00;52521.47;5050086;28;20659;-73
2020/12/31 05:08:25;;;;;;;31.10;21.23;;;;;;;-144.99;100.00;52521.47;5051262;28;20616;-73
2020/12/31 05:10:53;;;;;;;31.87;22.97;;;;;;;-144.99;100.00;52596.88;5044572;28;20716;-74
2020/12/31 05:13:22;;;;;;;23.77;18.87;;;;;;;-144.99;100.00;52537.78;5050018;28;20644;-71
2020/12/31 05:15:49;;;;;;;30.40;21.77;;;;;;;-144.99;100.00;52541.84;5043373;28;20652;-73
2020/12/31 05:18:20;;;;;;;32.33;20.73;;;;;;;-144.99;100.00;52513.31;5046823;28;20628;-73
2020/12/31 05:20:48;;;;;;;24.97;19.70;;;;;;;-144.99;100.00;52580.59;5048079;28;20759;-72
2020/12/31 05:23:14;;;;;;;28.37;21.63;;;;;;;-144.99;100.00;52541.84;5050322;28;21031;-72
2020/12/31 05:25:41;;;;;;;28.53;20.57;;;;;;;-144.99;100.00;52497.00;5041752;28;20659;-72
2020/12/31 05:28:25;;;;;;;33.50;23.03;;;;;;;-144.99;100.00;52497.00;5050706;28;20746;-72
2020/12/31 05:30:53;;;;;;;30.87;20.40;;;;;;;-144.99;100.00;52509.25;5044049;28;20665;-73
2020/12/31 05:33:27;;;;;;;26.07;19.20;;;;;;;-144.99;100.00;52539.81;5052980;28;20671;-73
2020/12/31 05:35:53;;;;;;;25.97;18.90;;;;;;;-144.99;100.00;52480.72;5048533;28;20660;-73
2020/12/31 05:38:20;;;;;;;35.53;24.43;;;;;;;-144.99;100.00;52517.41;5048676;28;21203;-72
2020/12/31 05:40:59;;;;;;;32.97;21.00;;;;;;;-144.99;100.00;52492.94;5041141;28;20648;-73
2020/12/31 05:43:26;;;;;;;31.43;23.17;;;;;;;-144.99;100.00;52570.38;5048893;28;20693;-73
2020/12/31 05:46:10;;;;;;;26.73;22.70;;;;;;;-144.99;100.00;52527.59;5047103;28;21252;-72
2020/12/31 05:48:37;;;;;;;31.33;22.67;;;;;;;-144.99;100.00;52537.78;5046790;28;20691;-73
2020/12/31 05:51:24;;;;;;;31.63;25.83;;;;;;;-144.99;100.00;52562.25;5051882;28;20701;-73
2020/12/31 05:53:51;;;;;;;30.23;21.77;;;;;;;-144.99;100.00;52537.78;5048136;28;20679;-74
2020/12/31 05:56:18;;;;;;;32.07;22.33;;;;;;;-144.99;100.00;52537.78;5045669;28;20628;-74
2020/12/31 05:58:48;;;;;;;27.13;20.13;;;;;;;-144.99;100.00;52513.31;5048670;28;20607;-73
2020/12/31 06:01:15;;;;;;;28.77;22.93;;;;;;;-144.99;100.00;52505.16;5047879;28;20654;-74
2020/12/31 06:03:52;;;;;;;32.73;21.83;;;;;;;-144.99;100.00;52509.25;5049132;28;20628;-74
2020/12/31 06:06:21;;;;;;;27.97;18.47;;;;;;;-144.99;100.00;52537.78;5047951;28;20628;-72
2020/12/31 06:09:02;;;;;;;29.70;20.77;;;;;;;-144.99;100.00;52541.84;5040166;28;20627;-75
2020/12/31 06:11:34;;;;;;;29.83;23.00;;;;;;;-144.99;100.00;52537.78;5048564;28;20762;-75
2020/12/31 06:14:03;;;;;;;27.73;20.93;;;;;;;-144.99;100.00;52501.09;5047861;28;20654;-74
2020/12/31 06:16:36;;;;;;;31.43;21.03;;;;;;;-144.99;100.00;52509.25;5048329;28;20632;-74
2020/12/31 06:19:27;;;;;;;27.97;20.83;;;;;;;-144.99;100.00;52537.78;5049013;28;20619;-76
2020/12/31 06:21:59;;;;;;;32.23;23.27;;;;;;;-144.99;100.00;52513.31;5043141;28;20750;-74
2020/12/31 06:24:33;;;;;;;26.27;22.03;;;;;;;-144.99;100.00;52537.78;5046730;28;21218;-75
2020/12/31 06:27:04;;;;;;;35.07;23.00;;;;;;;-144.99;100.00;52539.81;5042827;28;21283;-74
2020/12/31 06:29:47;;;;;;;28.90;22.47;;;;;;;-144.99;100.00;52521.47;5047424;28;20733;-73
2020/12/31 06:32:35;;;;;;;27.27;20.23;;;;;;;-144.99;100.00;52521.47;5044160;28;20760;-73
2020/12/31 06:35:05;;;;;;;31.70;22.67;;;;;;;-144.99;100.00;52545.94;5041862;28;21224;-73
2020/12/31 06:37:32;;;;;;;26.20;20.57;;;;;;;-144.99;100.00;52509.25;5047722;28;20757;-73
2020/12/31 06:40:22;;;;;;;32.47;23.63;;;;;;;-144.99;100.00;52497.00;5041898;28;20639;-73
2020/12/31 06:43:05;;;;;;;27.53;20.80;;;;;;;-144.99;100.00;52545.94;5045684;28;20620;-74
2020/12/31 06:45:40;;;;;;;31.23;23.90;;;;;;;-144.99;100.00;52529.63;5049030;28;20715;-73
2020/12/31 06:48:39;;;;;;;24.10;20.47;;;;;;;-144.99;100.00;52533.69;5047201;28;20690;-72
2020/12/31 06:51:07;;;;;;;27.40;20.00;;;;;;;-144.99;100.00;52529.63;5049033;28;20741;-73
2020/12/31 06:53:35;;;;;;;28.97;22.80;;;;;;;-144.99;100.00;52533.69;5053860;28;20837;-75
2020/12/31 06:56:03;;;;;;;30.17;22.33;;;;;;;-144.99;100.00;52527.59;5048803;28;21203;-74
2020/12/31 06:58:30;;;;;;;26.73;20.63;;;;;;;-144.99;100.00;52511.28;5046259;28;21040;-72
2020/12/31 07:00:57;;;;;;;29.97;20.17;;;;;;;-144.99;100.00;52545.94;5045162;28;21232;-73
2020/12/31 07:03:46;;;;;;;26.60;20.93;;;;;;;-144.99;100.00;52537.78;5046827;28;20658;-72
2020/12/31 07:06:31;;;;;;;29.33;21.97;;;;;;;-144.99;100.00;52537.78;5048983;28;20608;-73
2020/12/31 07:09:02;;;;;;;30.00;21.20;;;;;;;-144.99;100.00;52492.94;5036769;28;20658;-73
2020/12/31 07:11:32;;;;;;;28.67;23.27;;;;;;;-144.99;100.00;52545.94;5048512;28;20718;-75
2020/12/31 07:13:59;;;;;;;28.17;21.13;;;;;;;-144.99;100.00;52552.03;5056263;28;20698;-75
2020/12/31 07:16:40;;;;;;;26.57;21.20;;;;;;;-144.99;100.00;52543.91;5056958;28;20690;-76
2020/12/31 07:19:08;;;;;;;38.77;23.43;;;;;;;-144.99;100.00;52519.44;5052720;28;20678;-77
2020/12/31 07:21:36;;;;;;;27.63;22.13;;;;;;;-144.99;100.00;52533.69;5056784;28;20749;-74
2020/12/31 07:24:25;;;;;;;27.47;22.10;;;;;;;-144.99;100.00;52545.94;5053674;28;20990;-73
2020/12/31 07:26:55;;;;;;;35.63;23.80;;;;;;;-144.99;100.00;52533.69;5049435;28;20620;-74
2020/12/31 07:29:34;;;;;;;28.70;21.70;;;;;;;-144.99;100.00;52525.56;5052674;28;20668;-75
2020/12/31 07:32:02;;;;;;;33.33;22.53;;;;;;;-144.99;100.00;52505.16;5056280;28;20670;-75
2020/12/31 07:34:30;;;;;;;28.00;22.27;;;;;;;-144.99;100.00;52558.16;5055406;28;20663;-77
2020/12/31 07:37:04;;;;;;;33.50;24.67;;;;;;;-144.99;100.00;52513.31;5050153;28;20931;-73
2020/12/31 07:39:31;;;;;;;31.10;23.93;;;;;;;-144.99;100.00;52564.28;5051031;28;20742;-73
2020/12/31 07:42:11;;;;;;;26.30;20.27;;;;;;;-144.99;100.00;52545.94;5051343;28;21251;-73
2020/12/31 07:44:49;;;;;;;29.80;19.27;;;;;;;-144.99;100.00;52566.31;5052977;28;20712;-74
2020/12/31 07:47:15;;;;;;;28.93;21.77;;;;;;;-144.99;100.00;52574.47;5051680;28;20734;-74
2020/12/31 07:49:44;;;;;;;29.20;20.43;;;;;;;-144.99;100.00;52525.56;5052623;28;20838;-74
2020/12/31 07:52:10;;;;;;;34.07;21.67;;;;;;;-144.99;100.00;52566.31;5053780;28;21070;-73
2020/12/31 07:54:36;;;;;;;29.93;22.60;;;;;;;-144.99;100.00;52533.69;5051325;28;20691;-74
2020/12/31 07:57:04;;;;;;;33.30;22.33;;;;;;;-144.99;100.00;52497.00;5051383;28;20635;-72
2020/12/31 07:59:30;;;;;;;26.93;20.23;;;;;;;-144.99;100.00;52566.31;5048583;28;20624;-72
2020/12/31 08:02:04;;;;;;;26.33;20.30;;;;;;;-144.99;100.00;52513.31;5051938;28;21008;-73
2020/12/31 08:04:30;;;;;;;28.00;19.83;;;;;;;-144.99;100.00;52529.63;5050096;28;20727;-73
2020/12/31 08:06:57;;;;;;;31.63;22.03;;;;;;;-144.99;100.00;52529.63;5049777;28;21068;-73
2020/12/31 08:09:23;;;;;;;31.63;22.10;;;;;;;-144.99;100.00;52545.94;5050829;28;20715;-73
2020/12/31 08:11:50;;;;;;;27.20;21.73;;;;;;;-144.99;100.00;52558.16;5047217;28;20753;-73
2020/12/31 08:14:17;;;;;;;25.53;20.67;;;;;;;-144.99;100.00;52541.84;5049860;28;20774;-71
2020/12/31 08:16:43;;;;;;;26.13;20.03;;;;;;;-144.99;100.00;52582.63;5047453;28;21188;-75
2020/12/31 08:19:09;;;;;;;28.53;20.27;;;;;;;-144.99;100.00;52505.16;5043963;28;20732;-75
2020/12/31 08:21:37;;;;;;;25.27;17.57;;;;;;;-144.99;100.00;52566.31;5048291;28;20750;-75
2020/12/31 08:24:08;;;;;;;30.53;17.80;;;;;;;-144.99;100.00;52517.41;5045525;28;20631;-74
2020/12/31 08:26:35;;;;;;;26.70;18.93;;;;;;;-144.99;100.00;52566.31;5049735;28;21217;-77
2020/12/31 08:29:02;;;;;;;22.33;17.27;;;;;;;-144.99;100.00;52513.31;5049549;28;21169;-77
2020/12/31 08:31:30;;;;;;;22.47;18.30;;;;;;;-144.99;100.00;52541.84;5053470;28;20701;-77
2020/12/31 08:33:59;;;;;;;27.90;18.80;;;;;;;-144.99;100.00;52574.47;5052361;28;20964;-76
2020/12/31 08:36:27;;;;;;;25.00;17.97;;;;;;;-144.99;100.00;52486.81;5053627;28;20746;-77
2020/12/31 08:38:54;;;;;;;24.03;18.07;;;;;;;-144.99;100.00;52513.31;5051018;28;20721;-77
2020/12/31 08:41:21;;;;;;;28.27;20.43;;;;;;;-144.99;100.00;52541.84;5060315;28;20743;-78
2020/12/31 08:43:47;;;;;;;24.87;17.57;;;;;;;-144.99;100.00;52529.63;5057255;28;20732;-77
2020/12/31 08:46:19;;;;;;;24.80;17.90;;;;;;;-144.99;100.00;52497.00;5056694;28;20734;-76
2020/12/31 08:48:52;;;;;;;21.40;16.90;;;;;;;-144.99;100.00;52497.00;5056761;28;20643;-75
2020/12/31 08:51:19;;;;;;;20.97;15.80;;;;;;;-144.99;100.00;52521.47;5059861;28;20678;-76
2020/12/31 08:53:49;;;;;;;23.33;16.47;;;;;;;-144.99;100.00;52527.59;5061937;28;20659;-77
2020/12/31 08:56:16;;;;;;;18.57;15.90;;;;;;;-144.99;100.00;52515.34;5070870;28;20619;-77
2020/12/31 08:58:43;;;;;;;23.87;16.63;;;;;;;-144.99;100.00;52501.09;5052923;28;21033;-76
2020/12/31 09:01:23;;;;;;;21.13;18.00;;;;;;;-144.99;100.00;52558.16;5050250;28;20687;-76
2020/12/31 09:03:49;;;;;;;20.73;16.07;;;;;;;-144.99;100.00;52554.09;5049048;28;20632;-77
2020/12/31 09:06:23;;;;;;;19.80;15.63;;;;;;;-144.99;100.00;52560.19;5050348;28;20632;-75
2020/12/31 09:08:49;;;;;;;19.93;16.27;;;;;;;-144.99;100.00;52509.25;5061674;28;20615;-77
2020/12/31 09:11:25;;;;;;;19.13;16.93;;;;;;;-144.99;100.00;52521.47;5056264;28;20751;-78
2020/12/31 09:13:52;;;;;;;17.70;14.97;;;;;;;-144.99;100.00;52545.94;5051666;28;20738;-75
2020/12/31 09:16:18;;;;;;;22.67;16.13;;;;;;;-144.99;100.00;52550.00;5050512;28;20659;-77
2020/12/31 09:18:45;;;;;;;19.50;14.87;;;;;;;-144.99;100.00;52511.28;5050393;28;20647;-77
2020/12/31 09:21:12;;;;;;;16.93;14.70;;;;;;;-144.99;100.00;52550.00;5051592;28;20656;-77
2020/12/31 09:23:39;;;;;;;19.13;13.53;;;;;;;-144.99;100.00;52525.56;5052397;28;20727;-77
2020/12/31 09:26:05;;;;;;;15.27;12.80;;;;;;;-144.99;100.00;52572.44;5050910;28;21505;-78
2020/12/31 09:28:32;;;;;;;14.40;12.43;;;;;;;-144.99;100.00;52550.00;5051416;28;21036;-78
2020/12/31 09:31:22;;;;;;;16.43;14.73;;;;;;;-144.99;100.00;52578.53;5051403;28;20699;-77
2020/12/31 09:33:49;;;;;;;13.40;11.70;;;;;;;-144.99;100.00;52533.69;5051626;28;20699;-78
2020/12/31 09:36:23;;;;;;;14.83;12.17;;;;;;;-144.99;100.00;52513.31;5051113;28;21230;-77
2020/12/31 09:38:50;;;;;;;15.77;11.90;;;;;;;-144.99;100.00;52529.63;5051576;28;20662;-77
2020/12/31 09:41:16;;;;;;;15.40;11.00;;;;;;;-144.99;100.00;52533.69;5059600;28;20987;-76
2020/12/31 09:43:42;;;;;;;17.40;11.77;;;;;;;-144.99;100.00;52556.13;5052072;28;21208;-77
2020/12/31 09:46:09;;;;;;;12.70;10.53;;;;;;;-144.99;100.00;52568.34;5052538;28;21276;-77
2020/12/31 09:48:36;;;;;;;12.77;10.40;;;;;;;-144.99;100.00;52558.16;5050967;28;20719;-77
2020/12/31 09:51:02;;;;;;;13.97;10.10;;;;;;;-144.99;100.00;52537.78;5051188;28;20762;-78
2020/12/31 09:53:29;;;;;;;15.77;11.83;;;;;;;-144.99;100.00;52558.16;5049293;28;20673;-77
2020/12/31 09:55:55;;;;;;;12.03;10.77;;;;;;;-144.99;100.00;52525.56;5048193;28;20693;-77
2020/12/31 09:58:21;;;;;;;11.63;10.47;;;;;;;-144.99;100.00;52562.25;5051566;28;20659;-77
2020/12/31 10:00:47;;;;;;;16.03;10.53;;;;;;;-144.99;100.00;52529.63;5054664;28;20700;-76
2020/12/31 10:03:14;;;;;;;13.60;9.43;;;;;;;-144.99;100.00;52566.31;5050867;28;21196;-77
2020/12/31 10:05:40;;;;;;;13.20;11.00;;;;;;;-144.99;100.00;52525.56;5050653;28;20714;-76
2020/12/31 10:08:06;;;;;;;13.90;10.60;;;;;;;-144.99;100.00;52513.31;5051001;28;20620;-78
2020/12/31 10:10:32;;;;;;;15.53;10.13;;;;;;;-144.99;100.00;52517.41;5047613;28;20713;-74
2020/12/31 10:12:58;;;;;;;17.93;13.37;;;;;;;-144.99;100.00;52529.63;5047345;28;20962;-73
2020/12/31 10:15:24;;;;;;;14.67;11.70;;;;;;;-144.99;100.00;52560.19;5050038;28;20636;-74
2020/12/31 10:17:51;;;;;;;10.57;9.00;;;;;;;-144.99;100.00;52533.69;5049277;28;21212;-73
2020/12/31 10:20:18;;;;;;;10.67;8.80;;;;;;;-144.99;100.00;52554.09;5050048;28;21204;-73
2020/12/31 10:22:44;;;;;;;9.67;8.47;;;;;;;-144.99;100.00;52519.44;5049483;28;21080;-74
2020/12/31 10:25:10;;;;;;;12.30;9.27;;;;;;;-144.99;100.00;52505.16;5049540;28;20659;-73
2020/12/31 10:27:36;;;;;;;11.23;8.60;;;;;;;-144.99;100.00;52564.28;5048859;28;20686;-74
2020/12/31 10:30:03;;;;;;;12.17;9.57;;;;;;;-144.99;100.00;52490.91;5049613;28;20705;-74
2020/12/31 10:32:29;;;;;;;13.27;10.07;;;;;;;-144.99;100.00;52576.50;5049134;28;21105;-73
2020/12/31 10:34:55;;;;;;;12.90;10.47;;;;;;;-144.99;100.00;52543.91;5049210;28;20704;-73
2020/12/31 10:37:22;;;;;;;12.90;9.67;;;;;;;-144.99;100.00;52525.56;5056731;28;20642;-75
2020/12/31 10:39:48;;;;;;;14.17;10.27;;;;;;;-144.99;100.00;52554.09;5058767;28;21245;-77
2020/12/31 10:42:14;;;;;;;14.90;10.17;;;;;;;-144.99;100.00;52537.78;5061179;28;20680;-76
2020/12/31 10:44:43;;;;;;;11.93;9.70;;;;;;;-144.99;100.00;52527.59;5053933;28;20619;-78
2020/12/31 10:47:09;;;;;;;10.77;8.57;;;;;;;-144.99;100.00;52501.09;5053314;28;20731;-75
2020/12/31 10:49:35;;;;;;;11.37;9.83;;;;;;;-144.99;100.00;52541.84;5053274;28;20714;-75
2020/12/31 10:52:01;;;;;;;9.97;7.73;;;;;;;-144.99;100.00;52558.16;5052102;28;20917;-74
2020/12/31 10:54:28;;;;;;;11.67;8.40;;;;;;;-144.99;100.00;52517.41;5053477;28;20747;-74
2020/12/31 10:56:56;;;;;;;9.77;7.90;;;;;;;-144.99;100.00;52509.25;5046254;28;20651;-77
2020/12/31 10:59:22;;;;;;;9.83;8.00;;;;;;;-144.99;100.00;52564.28;5048410;28;21236;-76
2020/12/31 11:01:51;;;;;;;10.20;8.60;;;;;;;-144.99;100.00;52541.84;5052766;28;20961;-77
2020/12/31 11:04:17;;;;;;;11.17;8.40;;;;;;;-144.99;100.00;52501.09;5061424;28;20626;-76